TimeEDT,TemperatureF,Dew PointF,Humidity,Sea Level PressureIn,VisibilityMPH,Wind Direction,Wind SpeedMPH,Gust SpeedMPH,PrecipitationIn,Events,Conditions,WindDirDegrees,DateUTC
12:05 AM,68.0,66.2,94,29.82,2.5,North,10.4,-,0.02,Rain,Light Rain,360,2013-10-11 04:05:00
12:16 AM,68.0,66.2,94,29.82,4.0,North,10.4,-,0.02,Rain,Light Rain,350,2013-10-11 04:16:00
12:54 AM,66.9,66.0,97,29.82,4.0,NNW,15.0,-,0.04,Rain,Light Rain,340,2013-10-11 04:54:00
1:47 AM,66.2,64.4,94,29.82,2.5,NNW,9.2,-,0.03,Rain,Light Rain,340,2013-10-11 05:47:00
1:54 AM,66.0,64.9,96,29.82,3.0,NNW,9.2,-,0.03,Rain,Light Rain,340,2013-10-11 05:54:00
2:49 AM,64.4,64.4,100,29.82,2.5,NNW,11.5,-,0.01,Rain,Light Rain,330,2013-10-11 06:49:00
2:54 AM,64.9,64.0,97,29.82,2.5,NNW,11.5,-,0.02,Rain,Light Rain,330,2013-10-11 06:54:00
3:04 AM,64.4,64.4,100,29.82,3.0,NNW,9.2,-,0.00,Rain,Light Rain,340,2013-10-11 07:04:00
3:54 AM,64.0,63.0,96,29.82,8.0,NW,6.9,-,0.01,,Overcast,310,2013-10-11 07:54:00
4:54 AM,63.0,62.1,97,29.83,5.0,NW,9.2,-,N/A,,Overcast,320,2013-10-11 08:54:00
5:54 AM,63.0,62.1,97,29.84,4.0,NW,10.4,-,N/A,,Overcast,310,2013-10-11 09:54:00
6:54 AM,62.1,61.0,96,29.86,8.0,WNW,8.1,-,N/A,,Overcast,290,2013-10-11 10:54:00
7:30 AM,62.6,60.8,94,29.86,1.8,WNW,6.9,-,N/A,,Overcast,300,2013-10-11 11:30:00
7:42 AM,62.6,60.8,94,29.85,3.0,WNW,5.8,-,N/A,,Overcast,290,2013-10-11 11:42:00
7:54 AM,62.1,61.0,96,29.86,3.0,WNW,6.9,-,N/A,,Overcast,300,2013-10-11 11:54:00
8:54 AM,62.1,61.0,96,29.87,10.0,West,11.5,-,N/A,,Overcast,280,2013-10-11 12:54:00
9:54 AM,62.1,61.0,96,29.89,6.0,West,12.7,-,N/A,,Overcast,280,2013-10-11 13:54:00
10:07 AM,62.6,60.8,94,29.89,3.0,West,12.7,-,N/A,,Overcast,280,2013-10-11 14:07:00
10:50 AM,62.6,60.8,94,29.89,10.0,WNW,12.7,-,N/A,,Overcast,290,2013-10-11 14:50:00
10:54 AM,63.0,61.0,93,29.89,10.0,WNW,12.7,-,N/A,,Overcast,300,2013-10-11 14:54:00
11:54 AM,64.0,62.1,93,29.89,5.0,WNW,11.5,-,0.00,,Overcast,300,2013-10-11 15:54:00
12:54 PM,64.9,63.0,93,29.88,10.0,WNW,9.2,-,N/A,,Overcast,290,2013-10-11 16:54:00
1:54 PM,66.0,63.0,90,29.87,10.0,WNW,10.4,-,N/A,,Overcast,290,2013-10-11 17:54:00
2:54 PM,66.0,63.0,90,29.86,10.0,West,10.4,-,N/A,,Overcast,280,2013-10-11 18:54:00
3:54 PM,64.9,62.1,90,29.87,10.0,WNW,11.5,-,N/A,,Overcast,290,2013-10-11 19:54:00
4:54 PM,64.9,62.1,90,29.88,10.0,West,10.4,-,N/A,,Overcast,280,2013-10-11 20:54:00
5:54 PM,64.0,62.1,93,29.88,10.0,WNW,9.2,-,N/A,,Overcast,290,2013-10-11 21:54:00
6:06 PM,64.4,62.6,94,29.88,10.0,WNW,9.2,-,N/A,,Overcast,290,2013-10-11 22:06:00
6:54 PM,63.0,61.0,93,29.89,9.0,West,10.4,-,N/A,,Overcast,280,2013-10-11 22:54:00
7:16 PM,62.6,62.6,100,29.90,2.0,WNW,8.1,-,N/A,,Overcast,290,2013-10-11 23:16:00
7:43 PM,62.6,62.6,100,29.90,3.0,West,9.2,-,N/A,,Overcast,280,2013-10-11 23:43:00
7:54 PM,63.0,62.1,97,29.91,2.5,West,6.9,-,N/A,,Overcast,280,2013-10-11 23:54:00
8:12 PM,62.6,62.6,100,29.91,4.0,West,6.9,-,0.01,Rain,Light Rain,280,2013-10-12 00:12:00
8:54 PM,63.0,62.1,97,29.91,8.0,West,6.9,-,0.01,,Overcast,280,2013-10-12 00:54:00
9:54 PM,63.0,62.1,97,29.92,8.0,West,5.8,-,N/A,,Overcast,270,2013-10-12 01:54:00
10:54 PM,63.0,62.1,97,29.93,8.0,West,6.9,-,N/A,,Overcast,280,2013-10-12 02:54:00
11:20 PM,62.6,62.6,100,29.92,2.0,WNW,6.9,-,N/A,,Overcast,290,2013-10-12 03:20:00
11:46 PM,62.6,62.6,100,29.92,4.0,WNW,6.9,-,N/A,,Overcast,290,2013-10-12 03:46:00
11:54 PM,63.0,62.1,97,29.92,7.0,WNW,5.8,-,N/A,,Overcast,290,2013-10-12 03:54:00